Time;durP1;ratioP1;P1;durP2;ratioP2;P2;SDS_P1;SDS_P2;PMS_P1;PMS_P2;Temp;Humidity;BMP_temperature;BMP_pressure;BME280_temperature;BME280_humidity;BME280_pressure;Samples;Min_cycle;Max_cycle;Signal;HPM_P1;HPM_P2
2023/05/05 00:03:08;;;;;;;8.27;7.23;;;;;;;17.26;52.01;98787.72;6946744;28;20301;-84
2023/05/05 00:06:30;;;;;;;7.80;7.00;;;;;;;17.04;52.86;98786.78;6946956;28;20246;-83
2023/05/05 00:09:52;;;;;;;7.67;6.87;;;;;;;17.12;53.04;98770.06;6946434;28;20329;-85
2023/05/05 00:13:14;;;;;;;7.67;6.67;;;;;;;17.26;52.77;98781.44;6946047;28;20262;-84
2023/05/05 00:16:36;;;;;;;8.10;6.60;;;;;;;17.03;52.96;98781.59;6947156;28;20286;-84
2023/05/05 00:19:58;;;;;;;7.97;6.60;;;;;;;17.00;52.98;98776.66;6947154;28;20312;-84
2023/05/05 00:23:20;;;;;;;8.37;7.00;;;;;;;17.18;53.01;98782.69;6946260;28;20333;-83
2023/05/05 00:26:42;;;;;;;8.13;6.40;;;;;;;17.39;51.82;98775.69;6974842;28;20360;-84
2023/05/05 00:30:05;;;;;;;9.20;6.53;;;;;;;17.70;51.00;98788.69;6973490;28;20221;-84
2023/05/05 00:33:26;;;;;;;7.00;6.00;;;;;;;17.58;52.11;98783.34;6973780;28;20271;-84
2023/05/05 00:36:48;;;;;;;6.60;6.00;;;;;;;17.92;51.06;98786.84;6973862;28;20225;-84
2023/05/05 00:40:10;;;;;;;9.03;6.47;;;;;;;18.07;50.00;98770.66;6974215;28;20364;-84
2023/05/05 00:43:33;;;;;;;7.70;6.17;;;;;;;17.83;50.82;98774.69;6973493;28;20202;-83
2023/05/05 00:46:55;;;;;;;8.87;6.70;;;;;;;17.75;51.56;98773.22;6973618;28;20256;-84
2023/05/05 00:50:22;;;;;;;6.70;6.10;;;;;;;17.78;51.25;98772.72;6974032;28;20206;-84
2023/05/05 00:53:44;;;;;;;6.57;5.77;;;;;;;17.55;52.39;98781.13;6973390;28;20190;-82
2023/05/05 00:57:06;;;;;;;7.17;6.47;;;;;;;17.65;52.19;98769.53;6973752;28;20219;-84
2023/05/05 01:00:30;;;;;;;6.83;5.90;;;;;;;18.06;51.03;98772.56;6974027;28;20599;-83
2023/05/05 01:03:51;;;;;;;10.17;6.50;;;;;;;18.13;50.18;98778.66;6973299;28;20222;-84
2023/05/05 01:07:19;;;;;;;8.03;6.60;;;;;;;17.83;51.16;98775.53;6973496;28;20310;-83
2023/05/05 01:10:42;;;;;;;6.77;6.07;;;;;;;17.90;51.13;98745.31;6973697;28;20632;-83
2023/05/05 01:14:11;;;;;;;6.13;5.60;;;;;;;17.36;52.80;98768.81;6973173;28;20285;-84
2023/05/05 01:17:38;;;;;;;7.17;6.17;;;;;;;17.85;51.41;98747.97;6973884;28;20347;-84
2023/05/05 01:21:06;;;;;;;6.43;5.83;;;;;;;17.40;52.41;98747.38;6977556;28;20195;-83
2023/05/05 01:24:44;;;;;;;7.37;6.67;;;;;;;17.52;52.53;98746.16;6978653;28;20228;-84
2023/05/05 01:28:19;;;;;;;6.50;5.87;;;;;;;17.46;52.55;98755.34;6978754;28;20222;-83
2023/05/05 01:31:50;;;;;;;6.80;6.10;;;;;;;17.54;52.84;98767.72;6978558;28;20679;-84
2023/05/05 01:35:15;;;;;;;6.73;6.03;;;;;;;17.55;53.10;98769.38;6978214;28;20598;-84
2023/05/05 01:38:40;;;;;;;7.77;6.20;;;;;;;17.85;52.35;98758.88;6979001;28;20352;-84
2023/05/05 01:42:05;;;;;;;8.60;5.67;;;;;;;17.61;52.05;98716.56;6977759;28;20248;-83
2023/05/05 01:45:28;;;;;;;6.83;5.67;;;;;;;17.74;52.44;98773.50;6978451;28;20309;-85
2023/05/05 01:48:51;;;;;;;7.40;6.50;;;;;;;17.78;52.21;98770.00;6978401;28;20647;-83
2023/05/05 01:52:14;;;;;;;8.47;5.47;;;;;;;17.83;52.08;98759.16;6977423;28;20674;-84
2023/05/05 01:55:36;;;;;;;7.00;5.60;;;;;;;17.86;52.20;98750.47;6978226;28;20707;-84
2023/05/05 01:58:58;;;;;;;10.83;6.00;;;;;;;17.82;52.35;98773.84;6978182;28;20333;-83
2023/05/05 02:02:21;;;;;;;6.43;5.83;;;;;;;17.68;52.41;98749.97;6977709;28;20624;-84
2023/05/05 02:05:44;;;;;;;6.97;5.93;;;;;;;17.47;52.80;98745.28;6977509;28;20268;-84
2023/05/05 02:12:43;;;;;;;6.70;5.97;;;;;;;17.38;53.26;98746.75;6993715;28;20211;-82
2023/05/05 02:16:05;;;;;;;7.23;6.30;;;;;;;17.37;53.22;98770.44;6987672;28;20291;-83
2023/05/05 02:19:29;;;;;;;7.83;6.33;;;;;;;16.95;53.68;98736.53;6984717;28;20360;-83
2023/05/05 02:22:53;;;;;;;8.13;6.13;;;;;;;17.67;52.58;98760.03;6983306;28;20206;-83
2023/05/05 02:26:15;;;;;;;7.03;5.93;;;;;;;17.95;51.61;98740.78;6963496;28;20590;-83
2023/05/05 02:29:44;;;;;;;6.33;5.70;;;;;;;17.02;52.21;98627.41;6952830;28;20258;-83
2023/05/05 02:33:07;;;;;;;7.43;6.30;;;;;;;17.11;52.90;98688.56;6948981;28;20250;-83
2023/05/05 02:36:30;;;;;;;6.83;6.13;;;;;;;17.64;53.04;98757.78;6949712;28;20721;-83
2023/05/05 02:39:57;;;;;;;7.00;6.10;;;;;;;17.40;52.47;98701.03;6966604;28;20690;-83
2023/05/05 02:43:21;;;;;;;7.13;6.13;;;;;;;18.01;51.64;98774.41;6976688;28;20191;-84
2023/05/05 02:46:43;;;;;;;9.70;6.43;;;;;;;17.62;52.33;98737.31;6977262;28;20367;-83
2023/05/05 02:50:06;;;;;;;6.10;5.50;;;;;;;17.75;52.91;98788.78;6976710;28;20256;-84
2023/05/05 02:53:29;;;;;;;10.20;6.20;;;;;;;17.99;52.21;98787.47;6976586;28;20827;-83
2023/05/05 02:56:53;;;;;;;7.23;6.53;;;;;;;17.97;52.00;98778.69;6976213;28;20360;-84
2023/05/05 03:00:24;;;;;;;8.67;6.80;;;;;;;17.63;53.35;98790.78;6976604;28;20206;-83
2023/05/05 03:03:50;;;;;;;9.60;6.13;;;;;;;17.80;52.84;98792.38;6975926;28;20273;-83
2023/05/05 03:07:14;;;;;;;7.40;6.13;;;;;;;17.76;52.95;98793.16;6976309;28;20235;-83
2023/05/05 03:10:40;;;;;;;8.10;6.50;;;;;;;17.91;52.53;98794.19;6976177;28;20236;-84
2023/05/05 03:14:07;;;;;;;7.40;6.20;;;;;;;17.89;52.33;98801.81;6975745;28;20347;-83
2023/05/05 03:17:30;;;;;;;7.77;6.97;;;;;;;17.74;52.78;98787.94;6976219;28;20194;-83
2023/05/05 03:21:06;;;;;;;7.57;6.57;;;;;;;17.72;53.21;98792.00;6967471;28;20209;-83
2023/05/05 03:24:28;;;;;;;7.87;6.60;;;;;;;17.68;53.21;98782.69;6975050;28;20234;-83
2023/05/05 03:27:49;;;;;;;7.17;6.40;;;;;;;17.67;53.48;98797.38;6974914;28;20698;-85
2023/05/05 03:31:12;;;;;;;8.30;6.33;;;;;;;17.60;53.65;98799.44;6974862;28;20236;-84
2023/05/05 03:34:36;;;;;;;6.73;6.13;;;;;;;17.75;53.27;98805.94;6975476;28;20700;-84
2023/05/05 03:37:57;;;;;;;6.83;6.23;;;;;;;17.85;52.78;98803.38;6976715;28;20198;-83
2023/05/05 03:41:19;;;;;;;7.90;7.13;;;;;;;17.70;53.14;98805.88;6977389;28;20241;-83
2023/05/05 03:44:41;;;;;;;8.47;6.77;;;;;;;17.31;54.40;98785.06;6977534;28;20368;-84
2023/05/05 03:48:04;;;;;;;13.50;11.63;;;;;;;17.63;53.37;98797.03;6977607;28;20597;-84
2023/05/05 03:51:25;;;;;;;14.70;9.00;;;;;;;17.31;54.82;98808.75;6978086;28;20356;-83
2023/05/05 03:54:47;;;;;;;9.17;7.10;;;;;;;17.35;54.69;98810.75;6977054;28;20242;-82
2023/05/05 03:58:08;;;;;;;10.00;6.30;;;;;;;16.93;54.26;98702.44;6978041;28;20284;-84
2023/05/05 04:01:30;;;;;;;7.47;6.63;;;;;;;17.35;54.18;98753.50;6978074;28;20303;-83
2023/05/05 04:04:53;;;;;;;7.40;6.60;;;;;;;17.81;53.93;98804.94;6976796;28;20219;-83
2023/05/05 04:08:14;;;;;;;8.23;7.43;;;;;;;17.11;54.68;98749.31;6977165;28;20253;-83
2023/05/05 04:11:36;;;;;;;8.57;7.67;;;;;;;17.01;55.32;98775.56;6977776;28;20207;-84
2023/05/05 04:14:57;;;;;;;7.33;6.73;;;;;;;17.89;53.96;98809.16;6976405;28;20364;-83
2023/05/05 04:18:19;;;;;;;7.20;6.43;;;;;;;18.00;52.39;98767.28;6977512;28;20207;-84
2023/05/05 04:21:42;;;;;;;8.17;7.00;;;;;;;17.96;53.50;98812.50;6977499;28;20319;-83
2023/05/05 04:25:04;;;;;;;8.03;7.23;;;;;;;17.92;53.95;98814.13;6977305;28;20230;-85
2023/05/05 04:28:33;;;;;;;6.90;6.30;;;;;;;17.89;54.21;98809.16;6976429;28;20365;-84
2023/05/05 04:31:55;;;;;;;9.03;7.27;;;;;;;17.97;54.32;98817.72;6976557;28;20303;-83
2023/05/05 04:35:17;;;;;;;7.13;6.50;;;;;;;18.06;53.67;98796.28;6976659;28;20234;-83
2023/05/05 04:38:40;;;;;;;6.87;6.07;;;;;;;18.41;53.02;98818.59;6969287;28;20213;-83
2023/05/05 04:42:02;;;;;;;7.20;6.50;;;;;;;18.37;53.08;98801.06;6949393;28;20262;-83
2023/05/05 04:45:24;;;;;;;8.50;6.40;;;;;;;18.25;53.18;98764.88;6959609;28;20241;-85
2023/05/05 04:48:46;;;;;;;7.37;6.67;;;;;;;18.16;52.97;98750.84;6974370;28;20325;-84
2023/05/05 04:52:07;;;;;;;8.10;6.33;;;;;;;18.34;53.17;98796.94;6963342;28;20208;-84
2023/05/05 04:55:30;;;;;;;6.80;6.20;;;;;;;18.11;53.15;98749.97;6957840;28;20262;-84
2023/05/05 04:58:52;;;;;;;6.37;5.77;;;;;;;18.93;52.31;98823.28;6972686;28;20203;-84
2023/05/05 05:02:13;;;;;;;8.77;6.30;;;;;;;17.98;53.68;98742.19;6981488;28;20384;-84
2023/05/05 05:05:35;;;;;;;6.97;6.37;;;;;;;19.07;52.53;98829.16;6957782;28;20243;-85
2023/05/05 05:08:56;;;;;;;6.57;5.80;;;;;;;19.00;51.97;98803.97;6954197;28;20288;-82
2023/05/05 05:12:19;;;;;;;7.07;6.37;;;;;;;19.36;51.54;98834.13;6953889;28;20207;-84
2023/05/05 05:15:41;;;;;;;5.93;5.43;;;;;;;19.25;51.34;98774.13;6954352;28;20308;-84
2023/05/05 05:19:03;;;;;;;7.13;5.70;;;;;;;19.03;52.45;98768.72;6954200;28;20216;-84
2023/05/05 05:22:24;;;;;;;7.00;6.30;;;;;;;19.62;52.23;98830.50;6953578;28;20232;-84
2023/05/05 05:25:46;;;;;;;5.97;5.47;;;;;;;19.92;51.35;98849.06;6955170;28;20228;-85
2023/05/05 05:29:09;;;;;;;7.17;5.50;;;;;;;20.27;49.92;98854.78;6955793;28;20273;-84
2023/05/05 05:32:30;;;;;;;6.50;5.80;;;;;;;19.71;50.07;98763.28;6973614;28;20574;-84
2023/05/05 05:35:52;;;;;;;6.10;5.50;;;;;;;21.00;49.18;98855.38;6983202;28;20221;-85
2023/05/05 05:39:13;;;;;;;5.70;5.20;;;;;;;21.10;47.37;98824.41;6983811;28;20256;-85
2023/05/05 05:42:35;;;;;;;7.03;6.13;;;;;;;21.36;46.23;98835.13;6969192;28;20219;-85
2023/05/05 05:45:58;;;;;;;7.07;6.20;;;;;;;21.06;46.87;98779.41;6954742;28;20735;-83
2023/05/05 05:49:20;;;;;;;6.40;5.80;;;;;;;22.16;45.61;98855.13;6955465;28;20691;-85
2023/05/05 05:52:41;;;;;;;5.93;5.17;;;;;;;22.34;44.89;98846.28;6954196;28;20661;-86
2023/05/05 05:56:03;;;;;;;4.90;4.50;;;;;;;22.48;44.60;98852.03;6953898;28;20220;-85
2023/05/05 05:59:24;;;;;;;5.87;5.30;;;;;;;23.07;43.44;98847.34;6953902;28;20298;-83
2023/05/05 06:02:47;;;;;;;6.43;5.80;;;;;;;23.68;42.63;98857.66;6963563;28;20198;-85
2023/05/05 06:06:09;;;;;;;10.17;5.10;;;;;;;23.85;41.97;98860.81;6980140;28;20216;-84
2023/05/05 06:09:30;;;;;;;5.27;4.77;;;;;;;23.83;42.70;98862.22;6953904;28;20226;-84
2023/05/05 06:12:52;;;;;;;5.33;4.50;;;;;;;23.81;41.71;98832.19;6954598;28;20285;-84
2023/05/05 06:16:13;;;;;;;5.20;4.73;;;;;;;23.25;42.97;98811.75;6969239;28;20227;-85
2023/05/05 06:19:38;;;;;;;6.00;5.00;;;;;;;23.38;42.40;98849.66;6981239;28;20215;-84
2023/05/05 06:23:00;;;;;;;5.47;4.70;;;;;;;23.58;42.93;98832.13;6981592;28;20220;-84
2023/05/05 06:26:21;;;;;;;6.30;4.90;;;;;;;24.26;41.69;98858.50;6981370;28;20311;-83
2023/05/05 06:29:43;;;;;;;6.93;4.60;;;;;;;24.53;41.32;98854.03;6982715;28;20469;-84
2023/05/05 06:33:04;;;;;;;9.23;4.97;;;;;;;23.68;41.49;98802.59;6982613;28;20188;-84
2023/05/05 06:36:27;;;;;;;5.23;4.70;;;;;;;23.78;42.37;98799.72;6972605;28;20217;-83
2023/05/05 06:39:49;;;;;;;13.10;7.40;;;;;;;23.60;43.68;98807.91;6962141;28;20210;-87
2023/05/05 06:43:11;;;;;;;5.03;4.50;;;;;;;23.89;43.10;98834.34;6961365;28;20590;-85
2023/05/05 06:46:33;;;;;;;5.83;4.80;;;;;;;24.33;42.97;98848.78;6994505;28;20290;-85
2023/05/05 06:49:54;;;;;;;5.97;4.77;;;;;;;24.07;41.91;98808.81;6990037;28;20284;-85
2023/05/05 06:53:17;;;;;;;6.17;4.87;;;;;;;23.72;42.55;98767.84;6954958;28;20215;-85
2023/05/05 06:56:39;;;;;;;6.67;4.77;;;;;;;24.21;41.80;98866.81;6952776;28;20225;-85
2023/05/05 07:00:00;;;;;;;5.50;5.00;;;;;;;23.68;42.95;98837.56;6953195;28;20255;-85
2023/05/05 07:03:22;;;;;;;7.90;5.30;;;;;;;24.13;42.75;98865.50;6952393;28;20210;-85
2023/05/05 07:06:43;;;;;;;5.73;5.07;;;;;;;24.47;42.94;98862.66;6952470;28;20219;-87
2023/05/05 07:10:08;;;;;;;4.97;4.47;;;;;;;24.74;41.30;98871.19;6979086;28;20222;-85
2023/05/05 07:13:29;;;;;;;5.83;4.10;;;;;;;25.16;41.32;98860.16;6979228;28;20228;-84
2023/05/05 07:16:51;;;;;;;4.33;3.80;;;;;;;25.66;38.68;98810.50;6978281;28;20223;-85
2023/05/05 07:20:13;;;;;;;4.47;4.07;;;;;;;25.87;38.08;98762.06;6978463;28;20208;-85
2023/05/05 07:23:36;;;;;;;5.23;3.57;;;;;;;26.03;37.83;98782.81;6978182;28;20214;-85
2023/05/05 07:26:59;;;;;;;5.33;3.20;;;;;;;25.76;37.86;98831.59;6977800;28;20368;-85
2023/05/05 07:30:20;;;;;;;5.60;3.60;;;;;;;25.82;38.63;98809.13;6977999;28;20723;-85
2023/05/05 07:33:42;;;;;;;5.53;3.50;;;;;;;25.81;38.73;98790.91;6978087;28;20564;-85
2023/05/05 07:37:04;;;;;;;4.60;3.77;;;;;;;26.17;38.73;98872.06;6978104;28;20259;-85
2023/05/05 07:40:25;;;;;;;6.67;3.77;;;;;;;24.88;40.25;98806.75;6978365;28;20285;-85
2023/05/05 07:43:48;;;;;;;4.73;3.50;;;;;;;25.30;40.09;98841.78;6978460;28;20206;-85
2023/05/05 07:47:10;;;;;;;10.00;3.93;;;;;;;26.12;38.78;98876.88;6977957;28;20226;-85
2023/05/05 07:50:31;;;;;;;6.43;3.93;;;;;;;25.84;39.54;98878.69;6977734;28;20223;-85
2023/05/05 07:53:53;;;;;;;4.73;3.50;;;;;;;25.53;40.09;98873.97;6977858;28;20207;-85
2023/05/05 07:57:14;;;;;;;6.30;3.50;;;;;;;25.55;39.50;98828.34;6977398;28;20240;-85
2023/05/05 08:00:37;;;;;;;5.27;3.43;;;;;;;24.97;39.77;98771.88;6977712;28;20550;-85
2023/05/05 08:03:59;;;;;;;5.87;3.80;;;;;;;26.13;39.23;98873.00;6977351;28;20236;-85
2023/05/05 08:07:21;;;;;;;5.10;3.60;;;;;;;26.57;38.71;98882.41;6978964;28;20210;-85
2023/05/05 08:10:42;;;;;;;3.13;2.57;;;;;;;26.46;38.00;98869.88;6977730;28;20317;-85
2023/05/05 08:14:04;;;;;;;4.07;2.53;;;;;;;26.34;36.67;98811.47;6978187;28;20244;-85
2023/05/05 08:17:27;;;;;;;3.57;2.60;;;;;;;26.45;37.83;98884.81;6977574;28;20289;-85
2023/05/05 08:20:49;;;;;;;4.13;2.50;;;;;;;26.15;37.75;98830.09;6977230;28;20206;-85
2023/05/05 08:24:10;;;;;;;5.87;2.47;;;;;;;26.16;37.75;98892.56;6977427;28;20199;-85
2023/05/05 08:27:34;;;;;;;3.30;2.40;;;;;;;26.02;39.14;98905.50;6977378;28;20209;-85
2023/05/05 08:30:55;;;;;;;5.40;2.73;;;;;;;25.38;39.86;98894.38;6953936;28;20243;-85
2023/05/05 08:34:18;;;;;;;5.07;3.10;;;;;;;24.97;41.33;98862.91;6949896;28;20338;-85
2023/05/05 08:37:40;;;;;;;5.67;3.30;;;;;;;25.10;41.00;98895.28;6963889;28;20287;-85
2023/05/05 08:41:02;;;;;;;3.50;3.13;;;;;;;24.68;42.87;98897.19;6977331;28;20203;-85
2023/05/05 08:44:25;;;;;;;5.83;3.10;;;;;;;24.76;43.28;98899.28;6976668;28;20273;-86
2023/05/05 08:47:47;;;;;;;6.87;3.73;;;;;;;25.02;44.81;98906.97;6954004;28;20202;-85
2023/05/05 08:51:15;;;;;;;3.50;3.17;;;;;;;24.48;45.47;98851.34;6950623;28;20257;-85
2023/05/05 08:54:38;;;;;;;4.57;3.50;;;;;;;24.74;44.28;98910.66;6949716;28;20214;-83
2023/05/05 08:58:02;;;;;;;5.37;3.60;;;;;;;24.47;47.12;98904.00;6950145;28;20207;-84
2023/05/05 09:01:23;;;;;;;4.37;3.70;;;;;;;24.57;46.48;98879.13;6950481;28;20226;-84
2023/05/05 09:04:45;;;;;;;7.70;4.10;;;;;;;25.13;45.50;98904.91;6950173;28;20223;-84
2023/05/05 09:08:08;;;;;;;5.83;3.90;;;;;;;24.34;45.50;98803.56;6951693;28;20205;-86
2023/05/05 09:11:30;;;;;;;4.53;3.87;;;;;;;24.82;46.13;98859.50;6950060;28;20227;-84
2023/05/05 09:14:51;;;;;;;4.20;3.80;;;;;;;24.65;44.99;98881.25;6948717;28;20220;-85
2023/05/05 09:18:13;;;;;;;5.80;4.00;;;;;;;25.05;45.58;98925.69;6949242;28;20239;-86
2023/05/05 09:21:34;;;;;;;5.00;4.00;;;;;;;24.64;46.70;98901.66;6949424;28;20208;-84
2023/05/05 09:24:57;;;;;;;3.77;3.43;;;;;;;23.86;47.20;98815.63;6948586;28;20219;-85
2023/05/05 09:28:19;;;;;;;4.50;3.40;;;;;;;24.94;45.92;98902.09;6948802;28;20203;-84
2023/05/05 09:31:40;;;;;;;5.07;4.00;;;;;;;24.91;45.95;98905.47;6959454;28;20232;-85
2023/05/05 09:35:02;;;;;;;4.63;3.60;;;;;;;24.64;45.12;98813.41;6976569;28;20372;-85
2023/05/05 09:38:24;;;;;;;3.97;3.33;;;;;;;24.47;46.18;98799.25;6977814;28;20846;-84
2023/05/05 09:41:47;;;;;;;7.67;3.07;;;;;;;24.93;44.77;98872.06;6979316;28;20216;-87
2023/05/05 09:45:26;;;;;;;4.70;3.43;;;;;;;24.55;46.45;98884.09;6981228;28;20305;-85
2023/05/05 09:48:47;;;;;;;5.73;4.47;;;;;;;25.11;46.35;98857.44;6981306;28;20179;-84
2023/05/05 09:52:13;;;;;;;5.10;2.90;;;;;;;25.04;45.11;98868.03;6980876;28;20258;-85
2023/05/05 09:55:35;;;;;;;3.80;3.00;;;;;;;24.38;45.43;98861.69;6980843;28;20231;-84
2023/05/05 09:59:09;;;;;;;5.80;2.80;;;;;;;24.93;44.03;98858.25;6976779;28;20206;-84
2023/05/05 10:02:32;;;;;;;6.80;3.47;;;;;;;25.29;43.03;98863.03;6951801;28;20211;-84
2023/05/05 10:05:55;;;;;;;6.70;3.47;;;;;;;25.99;41.91;98869.34;6953178;28;20234;-89
2023/05/05 10:09:16;;;;;;;3.07;2.80;;;;;;;26.41;41.56;98864.44;6952357;28;20216;-84
2023/05/05 10:12:38;;;;;;;6.93;3.80;;;;;;;26.69;41.42;98863.34;6952736;28;20353;-84
2023/05/05 10:16:03;;;;;;;6.50;3.80;;;;;;;26.43;40.54;98837.28;6956482;28;20253;-85
2023/05/05 10:19:27;;;;;;;4.77;3.73;;;;;;;26.34;40.25;98863.19;6980410;28;20209;-84
2023/05/05 10:22:51;;;;;;;3.57;2.90;;;;;;;26.63;40.31;98853.50;6979785;28;20206;-87
2023/05/05 10:26:14;;;;;;;4.93;2.67;;;;;;;26.05;39.69;98833.06;6980403;28;20612;-84
2023/05/05 10:29:39;;;;;;;2.70;2.50;;;;;;;25.23;41.06;98855.91;6979613;28;20214;-86
2023/05/05 10:33:04;;;;;;;5.77;2.37;;;;;;;26.57;39.20;98856.69;6979804;28;20234;-85
2023/05/05 10:36:26;;;;;;;7.50;4.23;;;;;;;27.09;38.66;98828.44;6980115;28;20244;-83
2023/05/05 10:39:49;;;;;;;6.33;3.93;;;;;;;26.48;38.94;98817.03;6965388;28;20296;-83
2023/05/05 10:43:10;;;;;;;3.43;2.90;;;;;;;26.89;37.54;98832.47;6953247;28;20200;-83
2023/05/05 10:46:32;;;;;;;3.60;2.87;;;;;;;26.73;38.08;98792.41;6952621;28;20223;-84
2023/05/05 10:49:59;;;;;;;4.30;2.90;;;;;;;26.66;38.25;98832.72;6979541;28;20314;-86
2023/05/05 10:53:24;;;;;;;4.13;2.47;;;;;;;27.63;35.97;98831.03;6978506;28;20191;-84
2023/05/05 10:56:46;;;;;;;4.37;3.37;;;;;;;27.46;36.54;98831.75;6978968;28;20385;-85
2023/05/05 11:00:08;;;;;;;3.53;2.70;;;;;;;26.73;37.65;98825.63;6979297;28;20289;-83
2023/05/05 11:03:30;;;;;;;2.97;2.57;;;;;;;26.48;38.48;98826.13;6978275;28;20227;-82
2023/05/05 11:07:25;;;;;;;4.30;3.90;;;;;;;26.13;38.24;98831.53;6979645;28;20320;-83
2023/05/05 11:10:47;;;;;;;3.40;3.10;;;;;;;25.47;40.35;98815.25;6979260;28;20226;-83
2023/05/05 11:14:20;;;;;;;4.60;2.57;;;;;;;26.34;38.58;98800.44;6978617;28;20211;-83
2023/05/05 11:17:45;;;;;;;3.70;2.30;;;;;;;26.05;39.68;98816.47;6980402;28;20227;-83
2023/05/05 11:21:14;;;;;;;3.53;2.50;;;;;;;25.69;40.90;98803.56;6979283;28;20213;-83
2023/05/05 11:24:38;;;;;;;3.80;3.13;;;;;;;25.85;41.50;98794.72;6978911;28;20597;-83
2023/05/05 11:28:06;;;;;;;3.10;2.63;;;;;;;25.26;41.84;98802.06;6980372;28;20210;-83
2023/05/05 11:31:29;;;;;;;3.00;2.70;;;;;;;25.05;41.62;98779.47;6979211;28;20233;-82
2023/05/05 11:34:50;;;;;;;3.40;2.63;;;;;;;24.90;41.18;98754.84;6978623;28;20221;-83
2023/05/05 11:38:12;;;;;;;6.33;3.20;;;;;;;25.76;39.75;98791.00;6980453;28;20206;-83
2023/05/05 11:41:55;;;;;;;2.70;2.50;;;;;;;25.65;40.83;98797.03;6980897;28;20206;-84
2023/05/05 11:45:21;;;;;;;3.70;2.70;;;;;;;25.07;42.60;98796.53;6967327;28;20231;-83
2023/05/05 11:48:46;;;;;;;5.17;2.83;;;;;;;25.56;41.91;98785.00;6977472;28;20202;-83
2023/05/05 11:52:08;;;;;;;4.30;2.80;;;;;;;25.03;43.84;98789.97;6976824;28;20329;-83
2023/05/05 11:55:30;;;;;;;5.13;3.00;;;;;;;25.81;43.57;98792.84;6976050;28;20226;-84
2023/05/05 11:59:08;;;;;;;3.27;2.83;;;;;;;26.02;41.30;98774.81;6976227;28;20678;-83
2023/05/05 12:02:30;;;;;;;4.67;3.13;;;;;;;26.36;40.82;98780.78;6967921;28;20205;-84
2023/05/05 12:05:54;;;;;;;4.20;2.80;;;;;;;26.39;40.24;98789.25;6949166;28;20264;-84
2023/05/05 12:09:16;;;;;;;3.40;2.70;;;;;;;26.03;41.64;98780.03;6953134;28;20278;-84
2023/05/05 12:12:39;;;;;;;5.27;2.77;;;;;;;26.42;40.39;98785.88;6949247;28;20602;-85
2023/05/05 12:16:09;;;;;;;4.37;2.83;;;;;;;26.68;39.07;98767.66;6949704;28;20772;-86
2023/05/05 12:19:32;;;;;;;4.80;2.30;;;;;;;27.06;37.25;98766.22;6949834;28;20187;-83
2023/05/05 12:22:59;;;;;;;2.83;2.20;;;;;;;27.03;37.04;98777.94;6952105;28;20224;-84
2023/05/05 12:26:24;;;;;;;3.03;2.30;;;;;;;27.30;36.71;98769.53;6949243;28;20273;-84
2023/05/05 12:29:46;;;;;;;2.07;1.87;;;;;;;27.60;35.34;98735.53;6950068;28;20215;-85
2023/05/05 12:33:09;;;;;;;1.87;1.77;;;;;;;27.16;35.14;98688.50;6949777;28;20276;-84
2023/05/05 12:36:31;;;;;;;2.90;2.00;;;;;;;27.70;35.01;98754.66;6949067;28;20244;-84
2023/05/05 12:39:53;;;;;;;2.20;1.93;;;;;;;27.41;34.30;98721.06;6949533;28;20217;-84
2023/05/05 12:43:26;;;;;;;1.97;1.87;;;;;;;27.40;34.73;98749.91;6949504;28;20235;-84
2023/05/05 12:46:48;;;;;;;3.30;2.07;;;;;;;26.72;34.97;98679.34;6951151;28;20235;-84
2023/05/05 12:50:11;;;;;;;2.73;1.80;;;;;;;26.67;36.07;98748.59;6987506;28;20207;-84
2023/05/05 12:53:33;;;;;;;2.73;2.20;;;;;;;26.88;35.48;98714.63;7004008;28;20231;-83
2023/05/05 12:56:55;;;;;;;2.00;1.80;;;;;;;26.72;35.80;98741.00;6977145;28;20356;-83
2023/05/05 13:00:17;;;;;;;3.80;2.27;;;;;;;27.00;34.95;98714.88;6976471;28;20239;-83
2023/05/05 13:03:39;;;;;;;3.53;2.30;;;;;;;26.95;34.79;98711.44;6976844;28;20211;-84
2023/05/05 13:07:12;;;;;;;2.90;2.17;;;;;;;27.34;35.11;98695.78;6976652;28;20437;-83
2023/05/05 13:10:35;;;;;;;2.40;2.20;;;;;;;27.25;35.18;98696.88;6976858;28;20229;-83
2023/05/05 13:13:56;;;;;;;2.63;2.30;;;;;;;27.31;35.49;98712.22;6975833;28;20213;-83
2023/05/05 13:17:18;;;;;;;4.93;2.10;;;;;;;27.10;35.18;98694.44;6980176;28;20263;-84
2023/05/05 13:20:39;;;;;;;3.33;2.00;;;;;;;27.85;34.74;98700.81;6982383;28;20261;-83
2023/05/05 13:24:02;;;;;;;2.50;2.17;;;;;;;27.27;34.78;98697.34;6981497;28;20687;-84
2023/05/05 13:27:24;;;;;;;2.87;1.93;;;;;;;27.23;33.94;98680.56;6981179;28;20224;-84
2023/05/05 13:30:46;;;;;;;3.37;1.83;;;;;;;27.33;34.41;98685.03;6980376;28;20234;-83
2023/05/05 13:34:07;;;;;;;1.90;1.80;;;;;;;26.57;35.67;98674.97;6980680;28;20211;-84
2023/05/05 13:37:29;;;;;;;2.73;1.80;;;;;;;26.52;36.54;98677.81;6980817;28;20210;-84
2023/05/05 13:40:52;;;;;;;2.03;1.90;;;;;;;27.56;34.73;98654.22;6981608;28;20282;-84
2023/05/05 13:44:13;;;;;;;7.13;2.23;;;;;;;27.25;35.74;98656.13;6981130;28;20210;-87
2023/05/05 13:47:35;;;;;;;3.83;2.00;;;;;;;27.35;36.77;98664.19;6982137;28;20664;-86
2023/05/05 13:50:57;;;;;;;2.77;2.40;;;;;;;27.45;36.46;98627.94;6982130;28;20236;-86
2023/05/05 13:54:18;;;;;;;3.47;2.60;;;;;;;27.09;35.69;98584.84;6980984;28;20241;-86
2023/05/05 13:57:42;;;;;;;2.73;2.20;;;;;;;27.01;35.82;98646.53;6980805;28;20226;-85
2023/05/05 14:01:03;;;;;;;3.20;2.00;;;;;;;27.60;34.85;98629.47;6981888;28;20352;-85
2023/05/05 14:04:25;;;;;;;1.97;1.87;;;;;;;27.81;33.74;98600.88;6981078;28;20217;-86
2023/05/05 14:07:47;;;;;;;2.50;2.30;;;;;;;27.26;34.51;98619.00;6981904;28;20693;-87
2023/05/05 14:11:08;;;;;;;2.20;2.10;;;;;;;28.30;33.46;98611.56;6981350;28;20250;-87
2023/05/05 14:14:31;;;;;;;2.17;1.97;;;;;;;27.63;33.75;98609.41;6981754;28;20245;-86
2023/05/05 14:17:53;;;;;;;2.20;2.10;;;;;;;25.99;36.96;98604.91;6981325;28;20198;-87
2023/05/05 14:21:14;;;;;;;2.57;2.10;;;;;;;25.27;38.07;98544.25;6981300;28;20211;-87
2023/05/05 14:24:36;;;;;;;3.20;2.10;;;;;;;26.79;35.61;98585.63;6980557;28;20237;-87
2023/05/05 14:27:57;;;;;;;3.33;2.20;;;;;;;27.08;34.52;98541.72;6975236;28;20206;-88
2023/05/05 14:31:20;;;;;;;3.10;2.30;;;;;;;26.63;35.98;98603.75;6981627;28;20254;-89
2023/05/05 14:34:42;;;;;;;2.70;2.30;;;;;;;26.16;35.94;98546.22;6980618;28;20223;-88
2023/05/05 14:38:03;;;;;;;2.07;1.83;;;;;;;27.14;34.98;98601.34;6981114;28;20203;-87
2023/05/05 14:41:25;;;;;;;3.17;2.10;;;;;;;27.46;35.42;98601.03;6967493;28;20232;-88
2023/05/05 14:44:46;;;;;;;2.43;2.10;;;;;;;27.16;34.73;98568.63;6980251;28;20276;-87
2023/05/05 14:48:10;;;;;;;4.57;2.20;;;;;;;26.88;35.81;98592.88;6981077;28;20578;-87
2023/05/05 14:51:31;;;;;;;2.73;2.20;;;;;;;26.96;34.93;98561.66;6980924;28;20223;-87
2023/05/05 14:54:53;;;;;;;2.40;1.90;;;;;;;26.93;34.91;98564.22;6980808;28;20231;-88
2023/05/05 14:58:15;;;;;;;2.17;1.90;;;;;;;27.27;34.87;98601.28;6979994;28;20293;-87
2023/05/05 15:01:37;;;;;;;5.17;2.20;;;;;;;26.76;35.37;98598.16;6974998;28;20211;-88
2023/05/05 15:05:00;;;;;;;2.17;2.03;;;;;;;26.57;35.80;98567.09;6980586;28;20301;-88
2023/05/05 15:08:22;;;;;;;2.47;2.10;;;;;;;26.14;36.78;98579.69;6980629;28;20241;-88
2023/05/05 15:11:44;;;;;;;2.40;2.20;;;;;;;25.88;37.69;98555.66;6984481;28;20226;-88
2023/05/05 15:15:08;;;;;;;3.70;2.10;;;;;;;26.22;37.27;98567.09;6981847;28;20223;-88
2023/05/05 15:18:29;;;;;;;2.27;1.83;;;;;;;26.32;36.89;98600.03;6979086;28;20217;-87
2023/05/05 15:21:52;;;;;;;4.50;2.37;;;;;;;26.20;37.06;98594.22;6978509;28;20294;-87
2023/05/05 15:25:14;;;;;;;2.23;2.10;;;;;;;26.11;36.60;98571.22;6959314;28;20226;-88
2023/05/05 15:28:36;;;;;;;5.27;2.70;;;;;;;26.70;35.41;98585.56;6952294;28;20212;-87
2023/05/05 15:31:58;;;;;;;3.40;2.17;;;;;;;26.56;35.30;98556.34;6951950;28;20688;-87
2023/05/05 15:35:20;;;;;;;2.77;1.80;;;;;;;26.52;35.58;98571.88;6965772;28;20223;-87
2023/05/05 15:38:43;;;;;;;2.00;1.80;;;;;;;25.61;37.79;98537.19;6975293;28;20283;-87
2023/05/05 15:42:04;;;;;;;60.63;26.03;;;;;;;25.99;37.78;98573.69;6978021;28;20212;-88
2023/05/05 15:45:26;;;;;;;60.50;32.67;;;;;;;26.33;36.93;98549.13;6977701;28;20309;-87
2023/05/05 15:48:47;;;;;;;3.83;2.20;;;;;;;26.21;36.15;98546.94;6978613;28;20237;-87
2023/05/05 15:52:09;;;;;;;2.60;2.30;;;;;;;26.15;37.22;98578.59;6978509;28;20269;-87
2023/05/05 15:55:32;;;;;;;4.17;2.80;;;;;;;25.33;37.78;98496.94;6978858;28;20240;-86
2023/05/05 15:58:53;;;;;;;8.97;2.70;;;;;;;25.72;38.06;98540.56;6979068;28;20211;-86
2023/05/05 16:02:15;;;;;;;3.87;2.53;;;;;;;26.05;38.34;98587.09;6978097;28;20202;-86